Weather at Burlington Executive

Public forecast

Using degrees Celsius for public forecast. Weather courtesy of forecast.io.

Closest aviation weather report (METAR) to Burlington Executive

Report is more than 6 hours old.

Closest report is John C. Munro Hamilton International Airport, 16.5 nm (30.6 km) SSW. Retrieved 2020/10/18 13:00 UTC (1 day ago):

CYHM 181300Z CCA 18014G20KT 15SM SCT098 OVC120 12/03 A3018 RMK AC3AC5 SLP225

Closest aviation forecast (TAF) to Burlington Executive

Forecast is more than 6 hours old.

Closest forecast is John C. Munro Hamilton International Airport, 16.5 nm (30.6 km) SSW. Retrieved 2020/10/19 06:42 UTC (9 hours ago):

TAF CYHM 190539Z 1906/2006 33008KT P6SM SCT006 OVC012 TEMPO 1906/1913 5SM -RA BR BKN006 OVC012 PROB30 1909/1913 OVC004 FM191300 VRB03KT P6SM BKN012 OVC040 TEMPO 1913/1917 P6SM -SHRA OVC008 FM191700 VRB03KT P6SM BKN012 OVC040 FM192200 05008KT P6SM -RA OVC012 FM200000 04010KT 4SM -RA BR OVC005 RMK NXT FCST BY 191200Z